Time;durP1;ratioP1;P1;durP2;ratioP2;P2;SDS_P1;SDS_P2;PMS_P1;PMS_P2;Temp;Humidity;BMP_temperature;BMP_pressure;BME280_temperature;BME280_humidity;BME280_pressure;Samples;Min_cycle;Max_cycle;Signal;HPM_P1;HPM_P2
2022/05/16 00:01:37;;;;;;;16.73;16.00;;;19.30;7.80;;;;;;4936601;29;20189;-70
2022/05/16 00:04:03;;;;;;;15.97;15.27;;;19.20;7.90;;;;;;4936570;29;20199;-71
2022/05/16 00:06:29;;;;;;;16.60;15.90;;;19.10;8.10;;;;;;4935203;29;20518;-71
2022/05/16 00:08:55;;;;;;;15.50;14.90;;;18.90;8.50;;;;;;4936057;29;20970;-72
2022/05/16 00:11:21;;;;;;;16.10;15.40;;;18.90;8.50;;;;;;4935355;29;20178;-71
2022/05/16 00:13:47;;;;;;;15.80;15.00;;;18.80;9.30;;;;;;4936613;29;20505;-71
2022/05/16 00:16:12;;;;;;;14.90;14.30;;;18.70;9.40;;;;;;4935242;29;20614;-70
2022/05/16 00:18:38;;;;;;;15.77;15.17;;;18.60;10.10;;;;;;4936111;29;20497;-71
2022/05/16 00:21:04;;;;;;;15.30;14.70;;;18.60;9.80;;;;;;4953242;29;20213;-70
2022/05/16 00:23:29;;;;;;;15.97;15.27;;;18.50;10.00;;;;;;4955430;29;20170;-70
2022/05/16 00:25:55;;;;;;;15.13;14.53;;;18.30;10.90;;;;;;4937902;29;20217;-71
2022/05/16 00:28:20;;;;;;;14.17;13.57;;;18.20;11.50;;;;;;4937992;29;20640;-70
2022/05/16 00:30:46;;;;;;;15.50;14.80;;;17.90;12.20;;;;;;4955164;28;20202;-69
2022/05/16 00:33:11;;;;;;;14.57;13.40;;;17.70;12.50;;;;;;4955041;29;20518;-70
2022/05/16 00:35:37;;;;;;;14.53;13.80;;;17.50;14.00;;;;;;4954138;28;20174;-71
2022/05/16 00:38:03;;;;;;;13.50;13.00;;;17.50;13.90;;;;;;4937663;29;20326;-70
2022/05/16 00:40:28;;;;;;;12.83;12.23;;;17.40;14.80;;;;;;4955041;28;20198;-70
2022/05/16 00:43:10;;;;;;;13.13;12.63;;;17.50;14.80;;;;;;4937842;29;20194;-70
2022/05/16 00:45:36;;;;;;;13.60;12.90;;;17.50;14.80;;;;;;4954811;29;20293;-71
2022/05/16 00:48:02;;;;;;;14.03;13.53;;;17.60;14.50;;;;;;4954672;29;20432;-70
2022/05/16 00:50:30;;;;;;;13.70;13.10;;;17.50;14.10;;;;;;4937657;29;20449;-71
2022/05/16 00:52:57;;;;;;;14.10;13.40;;;17.50;14.20;;;;;;4954776;29;20911;-71
2022/05/16 00:55:32;;;;;;;14.20;13.60;;;17.40;14.20;;;;;;4937499;29;20413;-70
2022/05/16 00:58:03;;;;;;;13.63;13.00;;;17.40;14.10;;;;;;4937203;29;20657;-70
2022/05/16 01:00:32;;;;;;;14.07;13.47;;;17.40;13.90;;;;;;4954569;28;20519;-69
2022/05/16 01:05:54;;;;;;;13.97;13.27;;;17.40;13.60;;;;;;4954553;29;20476;-69
2022/05/16 01:08:24;;;;;;;13.73;13.07;;;17.50;13.40;;;;;;4954240;29;20417;-70
2022/05/16 01:10:54;;;;;;;14.07;13.27;;;17.50;13.50;;;;;;4954324;28;20516;-70
2022/05/16 01:13:25;;;;;;;13.00;12.40;;;17.50;14.10;;;;;;4954531;29;20512;-70
2022/05/16 01:15:51;;;;;;;13.43;12.93;;;17.50;14.10;;;;;;4954536;29;20418;-71
2022/05/16 01:18:19;;;;;;;12.20;11.70;;;17.50;14.80;;;;;;4954093;29;20894;-71
2022/05/16 01:21:13;;;;;;;13.73;13.10;;;17.50;14.80;;;;;;4937042;29;20457;-72
2022/05/16 01:23:43;;;;;;;12.57;11.97;;;17.40;14.80;;;;;;4954318;29;20432;-73
2022/05/16 01:26:13;;;;;;;13.07;12.47;;;17.30;14.70;;;;;;4954311;29;20922;-74
2022/05/16 01:28:39;;;;;;;12.60;12.10;;;17.30;14.70;;;;;;4953962;29;20500;-73
2022/05/16 01:31:04;;;;;;;12.83;12.33;;;17.00;15.50;;;;;;4954275;28;20498;-73
2022/05/16 01:33:30;;;;;;;12.07;11.47;;;17.10;15.70;;;;;;4954437;29;20185;-73
2022/05/16 01:35:56;;;;;;;12.83;12.33;;;17.00;15.50;;;;;;4954115;29;20545;-73
2022/05/16 01:38:27;;;;;;;13.40;12.73;;;17.10;18.20;;;;;;4953752;29;20189;-72
2022/05/16 01:40:54;;;;;;;13.27;12.57;;;15.70;30.20;;;;;;4953969;28;20758;-72
2022/05/16 01:43:22;;;;;;;12.87;12.37;;;17.40;15.40;;;;;;4936768;29;20477;-72
2022/05/16 01:45:48;;;;;;;12.73;12.23;;;17.40;14.80;;;;;;4953659;28;20975;-73
2022/05/16 01:48:16;;;;;;;11.80;11.40;;;17.50;14.80;;;;;;4936354;29;20414;-73
2022/05/16 01:50:43;;;;;;;12.87;12.37;;;17.60;14.90;;;;;;4953887;28;20463;-73
2022/05/16 01:53:10;;;;;;;12.87;12.37;;;17.70;14.80;;;;;;4953898;29;20886;-72
2022/05/16 01:55:36;;;;;;;13.20;12.60;;;17.90;14.40;;;;;;4954143;29;20941;-72
2022/05/16 01:58:02;;;;;;;12.43;11.83;;;18.10;14.20;;;;;;4936344;29;20421;-72
2022/05/16 02:00:28;;;;;;;12.90;12.40;;;18.20;14.20;;;;;;4953766;28;20442;-72
2022/05/16 02:02:53;;;;;;;13.60;13.10;;;18.40;13.90;;;;;;4953794;29;20445;-74
2022/05/16 02:05:22;;;;;;;13.73;13.03;;;18.50;13.60;;;;;;4953995;29;20213;-72
2022/05/16 02:07:50;;;;;;;13.90;13.30;;;18.60;20.00;;;;;;4953839;29;20182;-72
2022/05/16 02:10:16;;;;;;;13.90;13.30;;;18.70;20.20;;;;;;4953974;28;20437;-72
2022/05/16 02:12:42;;;;;;;13.43;12.83;;;18.70;13.00;;;;;;4954535;29;20468;-73
2022/05/16 02:15:11;;;;;;;12.50;12.00;;;18.70;13.40;;;;;;4953814;29;20422;-72
2022/05/16 02:17:37;;;;;;;14.67;13.93;;;18.70;13.50;;;;;;4953683;29;20189;-72
2022/05/16 02:20:03;;;;;;;13.60;12.90;;;18.80;13.30;;;;;;4936628;29;20477;-72
2022/05/16 02:25:13;;;;;;;13.57;12.87;;;18.90;13.50;;;;;;4953849;29;20492;-73
2022/05/16 02:27:38;;;;;;;13.77;13.20;;;18.90;13.40;;;;;;4953318;29;20875;-73
2022/05/16 02:30:05;;;;;;;13.03;12.23;;;18.90;13.60;;;;;;4953525;28;20289;-72
2022/05/16 02:32:31;;;;;;;13.40;12.70;;;18.90;14.10;;;;;;4953790;29;20595;-72
2022/05/16 02:34:57;;;;;;;14.83;14.00;;;18.90;13.60;;;;;;4953815;29;20417;-72
2022/05/16 02:37:22;;;;;;;13.80;13.03;;;18.90;13.60;;;;;;4953382;29;20214;-72
2022/05/16 02:39:48;;;;;;;13.93;13.23;;;18.90;13.80;;;;;;4953459;28;20212;-72
2022/05/16 02:42:14;;;;;;;13.30;12.70;;;18.90;14.10;;;;;;4953521;29;20182;-72
2022/05/16 02:44:43;;;;;;;13.00;12.50;;;18.90;14.00;;;;;;4953445;29;20201;-72
2022/05/16 02:47:18;;;;;;;13.93;13.23;;;18.90;13.90;;;;;;4953252;29;20428;-71
2022/05/16 02:49:45;;;;;;;13.60;13.00;;;19.00;13.90;;;;;;4936092;29;20453;-72
2022/05/16 02:52:11;;;;;;;13.40;12.90;;;19.00;14.10;;;;;;4953277;29;20424;-72
2022/05/16 02:54:37;;;;;;;13.10;12.57;;;19.00;13.90;;;;;;4953460;29;20975;-72
2022/05/16 02:57:04;;;;;;;12.67;12.17;;;19.00;14.00;;;;;;4953307;28;20473;-72
2022/05/16 02:59:33;;;;;;;13.90;13.07;;;19.00;14.10;;;;;;4939297;29;20450;-73
2022/05/16 03:02:04;;;;;;;13.87;13.27;;;19.00;14.10;;;;;;4956762;29;20417;-72
2022/05/16 03:04:31;;;;;;;13.20;12.70;;;19.10;14.10;;;;;;4956877;29;20465;-73
2022/05/16 03:06:56;;;;;;;12.50;12.00;;;19.00;14.10;;;;;;4956783;29;20449;-71
2022/05/16 03:09:23;;;;;;;12.77;12.27;;;19.00;14.20;;;;;;4956330;28;20484;-72
2022/05/16 03:11:49;;;;;;;12.63;12.13;;;19.00;14.70;;;;;;4956768;29;20190;-71
2022/05/16 03:14:15;;;;;;;12.70;12.20;;;19.00;14.50;;;;;;4956672;29;20427;-71
2022/05/16 03:16:41;;;;;;;12.10;11.60;;;19.00;14.80;;;;;;4956524;29;20980;-72
2022/05/16 03:19:07;;;;;;;12.87;12.13;;;18.90;14.70;;;;;;4956135;28;20186;-72
2022/05/16 03:21:33;;;;;;;12.37;11.87;;;18.90;15.00;;;;;;4956706;29;20182;-73
2022/05/16 03:23:59;;;;;;;13.13;12.53;;;18.90;15.30;;;;;;4956357;29;20516;-73
2022/05/16 03:26:25;;;;;;;13.17;12.50;;;18.90;15.00;;;;;;4956601;29;20449;-73
2022/05/16 03:28:51;;;;;;;12.90;12.20;;;18.90;15.20;;;;;;4939074;29;20181;-73
2022/05/16 03:31:17;;;;;;;12.80;12.30;;;18.90;15.50;;;;;;4956581;28;20441;-73
2022/05/16 03:33:43;;;;;;;12.70;12.10;;;19.00;15.60;;;;;;4956393;29;20185;-72
2022/05/16 03:36:09;;;;;;;12.50;11.90;;;19.00;15.80;;;;;;4956160;29;20911;-72
2022/05/16 03:41:20;;;;;;;12.23;11.63;;;18.90;15.80;;;;;;4956241;29;20910;-73
2022/05/16 03:43:45;;;;;;;12.03;11.53;;;18.90;15.80;;;;;;4956036;29;20414;-73
2022/05/16 03:46:11;;;;;;;11.57;11.07;;;18.90;15.80;;;;;;4956082;29;20182;-73
2022/05/16 03:48:37;;;;;;;12.60;11.90;;;18.90;15.80;;;;;;4955857;29;20182;-73
2022/05/16 03:51:06;;;;;;;12.10;11.50;;;18.90;16.60;;;;;;4956125;28;20979;-73
2022/05/16 03:53:32;;;;;;;11.97;11.37;;;19.00;17.40;;;;;;4956456;29;20416;-73
2022/05/16 03:55:57;;;;;;;12.10;11.50;;;19.00;15.80;;;;;;4955746;29;20982;-73
2022/05/16 03:58:23;;;;;;;11.53;11.03;;;19.00;15.80;;;;;;4955659;29;20190;-73
2022/05/16 04:00:49;;;;;;;11.77;11.20;;;;;;;;;;4956012;28;20194;-74
2022/05/16 04:03:15;;;;;;;12.53;11.67;;;19.00;15.40;;;;;;4955851;29;20190;-73
2022/05/16 04:05:41;;;;;;;11.23;10.63;;;19.00;15.80;;;;;;4955646;29;20462;-73
2022/05/16 04:08:07;;;;;;;11.90;11.40;;;19.00;15.80;;;;;;4955404;28;20425;-73
2022/05/16 04:10:33;;;;;;;11.70;11.20;;;19.00;15.80;;;;;;4955618;28;20818;-74
2022/05/16 04:12:58;;;;;;;12.50;11.80;;;19.10;15.90;;;;;;4955911;29;20432;-73
2022/05/16 04:15:25;;;;;;;16.10;11.10;;;19.10;15.90;;;;;;4955476;29;20190;-73
2022/05/16 04:17:51;;;;;;;11.80;11.00;;;19.10;16.00;;;;;;4955089;29;20177;-73
2022/05/16 04:20:19;;;;;;;11.20;10.50;;;19.10;15.90;;;;;;4955167;28;20523;-73
2022/05/16 04:22:45;;;;;;;13.10;12.40;;;19.10;15.90;;;;;;4955509;29;20433;-73
2022/05/16 04:25:13;;;;;;;10.50;10.03;;;19.20;16.30;;;;;;4955556;29;20822;-73
2022/05/16 04:27:39;;;;;;;11.00;10.50;;;19.10;15.90;;;;;;4955310;29;20510;-73
2022/05/16 04:30:05;;;;;;;11.13;10.53;;;;;;;;;;4955058;28;20528;-73
2022/05/16 04:32:31;;;;;;;11.93;11.33;;;19.20;15.50;;;;;;4955169;29;20185;-73
2022/05/16 04:34:56;;;;;;;13.23;12.33;;;19.20;16.00;;;;;;4955012;29;20429;-74
2022/05/16 04:37:22;;;;;;;12.67;12.07;;;19.10;16.70;;;;;;4954749;29;20182;-74
2022/05/16 04:39:48;;;;;;;12.73;12.00;;;19.00;16.60;;;;;;4954918;28;20288;-73
2022/05/16 04:44:57;;;;;;;11.50;10.93;;;18.80;17.20;;;;;;4954836;29;20213;-73
2022/05/16 04:47:23;;;;;;;11.90;11.30;;;18.50;17.70;;;;;;4954564;29;20413;-73
2022/05/16 04:49:48;;;;;;;11.47;10.87;;;17.80;19.30;;;;;;4954773;28;20620;-73
2022/05/16 04:52:14;;;;;;;11.30;10.70;;;17.70;19.30;;;;;;4954674;29;20182;-73
2022/05/16 04:54:41;;;;;;;11.00;10.30;;;17.80;19.40;;;;;;4954868;29;20260;-73
2022/05/16 04:57:07;;;;;;;9.73;9.23;;;17.70;19.90;;;;;;4954343;29;20553;-73
2022/05/16 04:59:32;;;;;;;10.60;9.80;;;17.60;21.00;;;;;;4954397;28;20528;-73
2022/05/16 05:01:58;;;;;;;10.73;9.87;;;17.90;19.60;;;;;;4954587;29;20499;-73
2022/05/16 05:04:24;;;;;;;10.80;10.10;;;18.10;19.60;;;;;;4954312;29;20584;-73
2022/05/16 05:06:51;;;;;;;10.60;10.00;;;18.30;19.80;;;;;;4937549;29;20205;-74
2022/05/16 05:09:17;;;;;;;10.20;9.70;;;18.50;20.00;;;;;;4954135;28;20512;-74
2022/05/16 05:14:32;;;;;;;8.80;8.40;;;18.80;20.70;;;;;;4954350;29;20496;-73
2022/05/16 05:17:02;;;;;;;10.60;9.60;;;19.10;20.60;;;;;;4936939;29;20452;-73
2022/05/16 05:19:28;;;;;;;10.60;10.00;;;19.40;40.60;;;;;;4971389;23;20535;-70
2022/05/16 05:21:54;;;;;;;11.87;11.27;;;19.70;20.10;;;;;;4915979;29;20428;-73
2022/05/16 05:24:19;;;;;;;11.43;10.83;;;20.10;19.90;;;;;;4916068;29;21016;-73
2022/05/16 05:26:47;;;;;;;12.93;12.30;;;21.00;19.20;;;;;;4916395;29;20190;-73
2022/05/16 05:29:13;;;;;;;12.17;11.50;;;;;;;;;;4899031;29;20238;-73
2022/05/16 05:31:41;;;;;;;13.93;13.20;;;22.90;14.90;;;;;;4935341;29;20423;-71
2022/05/16 05:34:08;;;;;;;13.70;13.00;;;23.50;13.00;;;;;;4935604;29;20422;-69
2022/05/16 05:36:35;;;;;;;14.00;13.20;;;23.40;13.00;;;;;;4935907;29;20423;-69
2022/05/16 05:39:01;;;;;;;14.30;13.57;;;23.30;13.00;;;;;;4935370;29;21037;-68
2022/05/16 05:41:27;;;;;;;13.33;12.73;;;23.20;13.30;;;;;;4935245;29;20434;-69
2022/05/16 05:43:53;;;;;;;13.30;12.60;;;23.00;13.70;;;;;;4935604;29;20427;-68
2022/05/16 05:46:19;;;;;;;13.23;12.63;;;22.90;14.10;;;;;;4918244;29;20178;-69
2022/05/16 05:48:45;;;;;;;13.23;12.73;;;22.90;14.20;;;;;;4935045;29;20505;-69
2022/05/16 05:51:11;;;;;;;13.67;13.07;;;22.70;18.90;;;;;;4934993;29;20438;-69
2022/05/16 05:53:37;;;;;;;13.40;12.80;;;22.50;13.90;;;;;;4918994;29;20186;-70
2022/05/16 05:56:05;;;;;;;12.90;12.20;;;22.30;14.40;;;;;;4934782;29;20414;-70
2022/05/16 05:58:32;;;;;;;12.77;12.17;;;22.20;14.80;;;;;;4934809;29;20446;-70
2022/05/16 06:00:59;;;;;;;12.60;11.93;;;22.20;14.90;;;;;;4917887;29;20449;-70
2022/05/16 06:03:25;;;;;;;12.80;11.80;;;22.20;15.20;;;;;;4934648;29;20461;-70
2022/05/16 06:05:51;;;;;;;13.03;12.33;;;22.20;15.30;;;;;;4934737;29;20494;-70
2022/05/16 06:08:16;;;;;;;12.73;11.93;;;22.50;15.50;;;;;;4934623;29;20171;-70
2022/05/16 06:10:42;;;;;;;13.93;13.33;;;23.20;14.30;;;;;;4934825;29;20210;-69
2022/05/16 06:13:08;;;;;;;13.73;13.03;;;23.30;12.10;;;;;;4935047;29;20197;-71
2022/05/16 06:15:34;;;;;;;13.00;12.50;;;23.50;12.20;;;;;;4934881;29;20234;-71
2022/05/16 06:17:59;;;;;;;14.37;13.40;;;23.40;11.80;;;;;;4934337;29;20547;-72
2022/05/16 06:20:25;;;;;;;12.57;11.97;;;23.20;11.80;;;;;;4934290;29;20454;-71
2022/05/16 06:22:51;;;;;;;13.10;12.40;;;23.00;12.30;;;;;;4934570;29;20211;-71
2022/05/16 06:25:31;;;;;;;12.90;12.40;;;22.80;12.50;;;;;;4934387;29;20206;-71
2022/05/16 06:28:03;;;;;;;13.43;12.83;;;22.70;12.70;;;;;;4934257;29;20546;-71
2022/05/16 06:30:29;;;;;;;12.63;12.03;;;22.50;13.40;;;;;;4934538;29;20426;-71
2022/05/16 06:32:54;;;;;;;13.70;12.90;;;22.40;13.50;;;;;;4918679;29;20466;-71
2022/05/16 06:35:20;;;;;;;12.50;12.00;;;22.40;13.70;;;;;;4938234;29;20876;-71
2022/05/16 06:37:45;;;;;;;13.03;12.40;;;22.30;13.60;;;;;;4937695;29;20547;-71
2022/05/16 06:40:13;;;;;;;12.80;12.10;;;22.30;13.70;;;;;;4938043;29;20523;-71
2022/05/16 06:42:39;;;;;;;12.40;11.87;;;22.20;14.30;;;;;;4937963;29;20174;-72
2022/05/16 06:45:06;;;;;;;12.70;12.10;;;22.00;14.50;;;;;;4937967;29;20464;-72
2022/05/16 06:47:32;;;;;;;12.50;11.90;;;22.00;14.50;;;;;;4937634;29;20260;-72
2022/05/16 06:49:57;;;;;;;11.93;11.43;;;22.00;14.80;;;;;;4937770;29;20619;-72
2022/05/16 06:52:24;;;;;;;12.00;11.40;;;21.90;14.80;;;;;;4937775;29;20640;-72
2022/05/16 06:54:51;;;;;;;13.17;12.47;;;22.00;14.80;;;;;;4936443;29;20185;-71
2022/05/16 06:57:16;;;;;;;12.10;11.57;;;22.20;14.90;;;;;;4927678;29;20451;-71
2022/05/16 06:59:42;;;;;;;13.00;12.20;;;22.40;14.90;;;;;;4930235;29;20779;-72
2022/05/16 07:02:08;;;;;;;13.27;12.50;;;22.80;14.40;;;;;;4942533;29;20186;-71
2022/05/16 07:04:36;;;;;;;13.53;12.20;;;23.30;13.50;;;;;;4952951;29;20197;-71
2022/05/16 07:07:04;;;;;;;13.40;12.80;;;23.90;16.40;;;;;;4944800;29;20217;-72
2022/05/16 07:09:30;;;;;;;13.07;12.57;;;24.90;11.70;;;;;;4932282;29;20485;-72
2022/05/16 07:11:55;;;;;;;13.53;12.97;;;26.20;11.20;;;;;;4933131;29;20415;-72
2022/05/16 07:14:21;;;;;;;14.40;13.70;;;27.60;8.70;;;;;;4935125;29;21034;-73
2022/05/16 07:16:46;;;;;;;13.83;13.23;;;28.80;7.60;;;;;;4932849;29;20187;-72
2022/05/16 07:19:12;;;;;;;14.30;13.70;;;30.00;4.40;;;;;;4936223;29;20191;-72
2022/05/16 07:21:38;;;;;;;14.97;14.27;;;30.90;3.50;;;;;;4932043;29;20245;-72
2022/05/16 07:24:04;;;;;;;14.43;13.73;;;31.70;2.20;;;;;;4932142;29;20576;-72
2022/05/16 07:29:14;;;;;;;14.73;14.10;;;32.20;1.00;;;;;;4932482;29;20489;-72
2022/05/16 07:31:40;;;;;;;15.23;14.53;;;32.60;1.00;;;;;;4933239;29;20535;-73
2022/05/16 07:34:05;;;;;;;14.97;14.37;;;32.90;1.00;;;;;;4932590;29;20242;-72
2022/05/16 07:36:31;;;;;;;15.00;14.40;;;33.60;1.00;;;;;;4932452;29;20852;-71
2022/05/16 07:38:56;;;;;;;14.87;14.20;;;34.20;1.00;;;;;;4914734;29;20241;-72
2022/05/16 07:41:22;;;;;;;13.73;13.17;;;35.00;1.00;;;;;;4914871;29;20290;-71
2022/05/16 07:43:47;;;;;;;14.63;14.03;;;35.20;1.00;;;;;;4931756;29;20194;-71
2022/05/16 07:46:13;;;;;;;14.80;14.20;;;35.10;1.00;;;;;;4931845;29;20397;-72
2022/05/16 07:48:39;;;;;;;15.00;14.40;;;34.70;1.00;;;;;;4931890;29;20190;-72
2022/05/16 07:51:04;;;;;;;14.60;14.00;;;34.90;1.00;;;;;;4933191;29;20338;-71
2022/05/16 07:53:30;;;;;;;14.50;13.90;;;35.10;1.00;;;;;;4932861;29;20185;-72
2022/05/16 07:55:56;;;;;;;14.20;13.60;;;35.60;1.00;;;;;;4932115;29;20372;-72
2022/05/16 07:58:23;;;;;;;15.73;15.03;;;36.00;1.00;;;;;;4933344;29;20206;-72
2022/05/16 08:00:50;;;;;;;15.27;14.67;;;36.30;1.00;;;;;;4934952;29;20458;-72
2022/05/16 08:03:19;;;;;;;15.30;14.70;;;35.90;1.00;;;;;;4936535;29;20856;-71
2022/05/16 08:05:44;;;;;;;16.53;15.37;;;35.20;1.00;;;;;;4936503;29;20812;-72
2022/05/16 08:10:57;;;;;;;15.23;14.63;;;33.40;1.00;;;;;;4936183;29;20222;-71
2022/05/16 08:13:23;;;;;;;15.00;14.30;;;32.50;1.00;;;;;;4935461;29;20419;-71
2022/05/16 08:15:49;;;;;;;14.77;14.20;;;31.70;1.00;;;;;;4936167;29;20999;-71
2022/05/16 08:18:14;;;;;;;15.40;14.73;;;30.90;1.20;;;;;;4935908;29;20530;-71
2022/05/16 08:20:43;;;;;;;14.30;13.80;;;29.80;5.60;;;;;;4918530;29;20703;-72
2022/05/16 08:23:10;;;;;;;15.10;14.30;;;29.80;2.50;;;;;;4935674;29;20183;-72
2022/05/16 08:25:36;;;;;;;14.10;13.50;;;29.90;2.80;;;;;;4935891;29;20462;-71
2022/05/16 08:28:01;;;;;;;14.53;14.03;;;29.80;2.80;;;;;;4935742;29;20433;-71
2022/05/16 08:30:28;;;;;;;16.63;15.33;;;29.60;3.30;;;;;;4936180;29;20257;-71
2022/05/16 08:32:56;;;;;;;15.07;14.40;;;29.30;3.60;;;;;;4936212;29;20185;-71
2022/05/16 08:35:23;;;;;;;15.80;15.10;;;28.90;3.70;;;;;;4935729;29;20447;-71
2022/05/16 08:40:56;;;;;;;15.47;14.67;;;28.50;4.10;;;;;;4932986;29;20469;-72
2022/05/16 08:43:50;;;;;;;15.30;14.60;;;27.90;5.00;;;;;;4917226;29;20821;-72
2022/05/16 08:46:26;;;;;;;14.80;14.20;;;27.80;5.20;;;;;;4935725;29;20469;-71
2022/05/16 08:49:25;;;;;;;15.10;14.40;;;27.50;5.60;;;;;;4935414;29;20446;-71
2022/05/16 08:52:05;;;;;;;14.70;14.10;;;27.50;5.90;;;;;;4913863;29;20442;-70
2022/05/16 08:54:59;;;;;;;15.17;14.47;;;27.50;5.70;;;;;;4934951;29;20874;-72
2022/05/16 08:57:31;;;;;;;15.87;15.20;;;27.30;6.10;;;;;;4890399;29;20844;-71
2022/05/16 09:00:07;;;;;;;16.67;15.23;;;27.10;6.50;;;;;;4917133;29;20442;-69
2022/05/16 09:02:34;;;;;;;16.60;15.50;;;26.90;6.80;;;;;;4934930;29;20447;-70
2022/05/16 09:05:29;;;;;;;15.17;14.50;;;26.90;7.10;;;;;;4935180;29;20465;-70
2022/05/16 09:07:57;;;;;;;14.80;14.17;;;26.80;7.30;;;;;;4917779;29;20477;-71
2022/05/16 09:10:41;;;;;;;14.50;13.90;;;26.60;8.00;;;;;;4934838;29;20447;-71
2022/05/16 09:13:31;;;;;;;15.73;14.30;;;26.80;7.80;;;;;;4935307;29;20426;-71
2022/05/16 09:16:29;;;;;;;14.70;14.10;;;27.10;7.40;;;;;;4934541;29;20809;-70
2022/05/16 09:19:48;;;;;;;14.40;13.80;;;27.40;7.40;;;;;;4934874;29;20442;-70
2022/05/16 09:22:35;;;;;;;15.40;14.70;;;27.60;7.20;;;;;;4839106;29;20526;-70
2022/05/16 09:25:28;;;;;;;14.70;14.03;;;27.70;6.90;;;;;;4934303;29;20462;-70
2022/05/16 09:30:56;;;;;;;14.47;13.77;;;28.00;7.40;;;;;;4905543;29;20461;-70
2022/05/16 09:33:25;;;;;;;14.60;13.90;;;28.20;7.00;;;;;;4921953;29;20430;-70
2022/05/16 09:35:56;;;;;;;14.47;13.93;;;28.10;7.10;;;;;;4915540;29;20425;-70
2022/05/16 09:38:22;;;;;;;14.87;14.27;;;28.00;7.30;;;;;;4898597;29;20620;-70
2022/05/16 09:41:00;;;;;;;14.53;13.93;;;27.90;7.50;;;;;;4916075;29;20447;-70
2022/05/16 09:43:33;;;;;;;15.33;14.60;;;27.80;7.80;;;;;;4915724;29;20781;-70
2022/05/16 09:46:09;;;;;;;15.37;14.70;;;27.90;7.90;;;;;;4932039;29;20890;-70
2022/05/16 09:48:36;;;;;;;14.70;14.10;;;28.00;8.00;;;;;;4933058;29;20433;-70
2022/05/16 09:51:05;;;;;;;15.00;14.37;;;28.10;8.00;;;;;;4923452;29;20517;-70
2022/05/16 09:53:43;;;;;;;15.27;14.67;;;28.30;7.70;;;;;;4934479;29;20780;-70
2022/05/16 09:56:30;;;;;;;15.20;14.50;;;28.20;8.00;;;;;;4934662;29;20422;-70
2022/05/16 09:59:00;;;;;;;14.40;13.70;;;28.10;8.00;;;;;;4916773;29;20436;-70
2022/05/16 10:01:39;;;;;;;15.00;14.40;;;28.00;8.20;;;;;;4934449;29;20501;-70
2022/05/16 10:04:12;;;;;;;15.00;14.37;;;27.90;8.70;;;;;;4934337;29;20919;-71
2022/05/16 10:06:44;;;;;;;15.30;14.63;;;27.50;9.00;;;;;;4936478;29;20422;-71
2022/05/16 10:09:15;;;;;;;15.00;14.40;;;26.90;10.00;;;;;;4940450;29;20501;-71
2022/05/16 10:11:47;;;;;;;15.23;14.43;;;26.60;10.70;;;;;;4940482;29;20422;-71
2022/05/16 10:14:13;;;;;;;14.73;14.13;;;26.50;11.00;;;;;;4940691;29;20422;-70
2022/05/16 10:16:45;;;;;;;15.80;15.00;;;26.40;11.70;;;;;;4939327;29;20509;-70
2022/05/16 10:19:15;;;;;;;14.67;13.97;;;26.30;11.70;;;;;;4942109;29;20461;-70
2022/05/16 10:21:49;;;;;;;14.07;13.47;;;26.10;11.60;;;;;;4941844;29;20449;-69
2022/05/16 10:24:15;;;;;;;14.50;13.77;;;25.90;12.60;;;;;;4941163;29;20489;-68
2022/05/16 10:26:44;;;;;;;13.70;13.10;;;25.90;13.00;;;;;;4940730;29;20426;-70
2022/05/16 10:29:17;;;;;;;14.60;13.50;;;25.70;13.10;;;;;;4940147;29;20425;-69
2022/05/16 10:34:50;;;;;;;15.03;13.50;;;25.40;12.90;;;;;;4940778;29;20449;-69
2022/05/16 10:37:17;;;;;;;15.60;14.80;;;25.20;12.80;;;;;;4923089;29;20433;-69
2022/05/16 10:39:48;;;;;;;15.50;14.77;;;25.00;11.70;;;;;;4940458;29;20438;-69
2022/05/16 10:42:49;;;;;;;16.80;16.03;;;25.00;11.00;;;;;;4923315;29;20811;-69
2022/05/16 10:45:19;;;;;;;15.47;14.70;;;24.90;10.50;;;;;;4890820;29;20478;-70
2022/05/16 10:48:00;;;;;;;15.20;14.40;;;24.70;10.40;;;;;;4921231;29;20797;-69
2022/05/16 10:50:32;;;;;;;15.67;14.80;;;24.70;10.80;;;;;;4921611;29;20865;-70
2022/05/16 10:53:10;;;;;;;16.80;15.83;;;24.60;10.70;;;;;;4921706;29;20415;-70
2022/05/16 10:56:10;;;;;;;15.20;14.50;;;24.60;10.70;;;;;;4904597;29;20510;-71
2022/05/16 10:58:57;;;;;;;15.10;14.20;;;24.50;10.60;;;;;;4918440;29;20456;-71
2022/05/16 11:01:36;;;;;;;16.80;15.70;;;24.30;10.50;;;;;;4904585;29;20956;-69
2022/05/16 11:04:17;;;;;;;15.67;14.60;;;24.20;11.90;;;;;;4921862;29;20501;-72
2022/05/16 11:07:16;;;;;;;15.83;14.40;;;24.00;13.10;;;;;;4922219;29;20851;-72
2022/05/16 11:10:21;;;;;;;14.00;12.80;;;23.80;15.50;;;;;;4922234;29;20446;-72
2022/05/16 11:13:00;;;;;;;13.70;12.70;;;23.60;17.80;;;;;;4923079;29;20438;-72
2022/05/16 11:15:36;;;;;;;13.17;12.47;;;23.10;19.70;;;;;;4922782;29;20415;-72
2022/05/16 11:18:11;;;;;;;12.83;11.53;;;22.70;19.70;;;;;;4920513;29;20474;-72
2022/05/16 11:20:42;;;;;;;11.10;10.40;;;22.60;21.10;;;;;;4942428;23;20490;-71
2022/05/16 11:23:33;;;;;;;9.73;9.17;;;22.20;21.50;;;;;;4953434;29;20482;-70
2022/05/16 11:26:02;;;;;;;9.67;9.00;;;21.70;23.30;;;;;;4923448;29;20474;-71
2022/05/16 11:29:17;;;;;;;8.60;8.00;;;21.10;24.60;;;;;;4923089;29;20420;-70
2022/05/16 11:31:58;;;;;;;8.07;7.37;;;20.80;26.60;;;;;;4924650;29;20449;-70
2022/05/16 11:35:03;;;;;;;7.03;6.43;;;20.40;28.00;;;;;;4924002;29;20423;-70
2022/05/16 11:37:56;;;;;;;7.00;6.30;;;20.10;27.90;;;;;;4923824;29;20514;-70
2022/05/16 11:40:34;;;;;;;11.27;6.93;;;20.00;27.50;;;;;;4920630;29;20499;-71
2022/05/16 11:43:16;;;;;;;6.97;6.33;;;19.90;27.70;;;;;;4918328;29;20498;-71
2022/05/16 11:45:51;;;;;;;7.67;5.80;;;19.80;28.10;;;;;;4919622;29;20471;-70
2022/05/16 11:48:37;;;;;;;11.53;4.77;;;19.80;29.30;;;;;;4919700;29;20454;-69
2022/05/16 11:51:40;;;;;;;5.60;5.10;;;19.50;29.70;;;;;;4919162;29;20451;-71
2022/05/16 11:54:08;;;;;;;6.90;6.27;;;19.20;30.60;;;;;;4918847;29;20795;-68
2022/05/16 12:03:00;;;;;;;4.67;4.37;;;19.50;30.30;;;;;;4918175;29;20776;-70
2022/05/16 12:05:26;;;;;;;4.83;4.43;;;19.60;29.20;;;;;;4918354;29;20455;-68
2022/05/16 12:08:04;;;;;;;5.20;4.70;;;19.60;29.20;;;;;;4917287;29;20801;-71
2022/05/16 12:10:31;;;;;;;6.73;6.20;;;19.70;29.30;;;;;;4917869;29;20718;-71
2022/05/16 12:13:22;;;;;;;5.50;5.00;;;19.80;28.50;;;;;;4918240;29;20933;-71
2022/05/16 12:15:48;;;;;;;5.53;4.77;;;19.90;29.70;;;;;;4918026;29;20455;-71
2022/05/16 12:18:34;;;;;;;5.13;4.73;;;20.10;30.20;;;;;;4916762;29;20443;-71
2022/05/16 12:21:21;;;;;;;5.67;5.07;;;20.00;31.40;;;;;;4928340;29;20457;-71
2022/05/16 12:23:49;;;;;;;5.13;4.53;;;20.30;31.20;;;;;;4920062;29;20434;-70
2022/05/16 12:26:26;;;;;;;5.17;4.67;;;20.60;29.90;;;;;;4935915;29;20469;-71
2022/05/16 12:29:19;;;;;;;6.63;6.03;;;20.90;30.00;;;;;;4935612;29;20434;-71
2022/05/16 12:31:44;;;;;;;5.73;5.33;;;21.20;28.20;;;;;;4934636;29;20777;-70
2022/05/16 12:34:10;;;;;;;6.77;6.27;;;21.60;27.10;;;;;;4934920;29;20426;-71
2022/05/16 12:36:36;;;;;;;7.47;6.87;;;22.10;25.50;;;;;;4929976;29;20836;-71
2022/05/16 12:39:26;;;;;;;8.60;8.03;;;22.60;24.60;;;;;;4914362;29;20439;-71
2022/05/16 12:42:33;;;;;;;8.97;8.40;;;23.10;23.10;;;;;;4939259;29;20288;-71
2022/05/16 12:45:31;;;;;;;9.87;9.10;;;23.50;22.30;;;;;;4890065;29;20473;-71
2022/05/16 12:48:13;;;;;;;9.87;9.37;;;23.80;21.40;;;;;;4914713;29;21039;-70
2022/05/16 12:50:39;;;;;;;10.70;10.10;;;23.70;20.40;;;;;;4915427;29;20438;-71
2022/05/16 12:53:04;;;;;;;11.67;10.80;;;24.10;19.60;;;;;;4913143;29;20427;-71
2022/05/16 12:55:52;;;;;;;10.50;9.90;;;24.30;21.00;;;;;;4922331;29;20204;-71
2022/05/16 12:58:42;;;;;;;10.77;10.10;;;24.50;19.60;;;;;;4922883;29;20207;-71
2022/05/16 13:01:11;;;;;;;12.27;11.53;;;24.90;19.90;;;;;;4924547;29;20955;-69
2022/05/16 13:03:53;;;;;;;10.50;9.90;;;25.10;17.50;;;;;;4926118;29;20479;-72
2022/05/16 13:06:38;;;;;;;10.80;10.17;;;25.00;18.60;;;;;;4917664;29;20462;-70
2022/05/16 13:09:09;;;;;;;11.20;10.60;;;25.20;16.10;;;;;;4917728;29;20404;-71
2022/05/16 13:11:55;;;;;;;10.97;10.47;;;25.10;18.00;;;;;;4917115;29;20486;-71
2022/05/16 13:14:48;;;;;;;10.53;9.93;;;25.30;18.40;;;;;;4912033;29;20430;-70
2022/05/16 13:17:30;;;;;;;12.13;11.30;;;25.60;16.80;;;;;;4936018;29;20422;-70
2022/05/16 13:19:59;;;;;;;12.23;11.57;;;25.70;16.40;;;;;;4919749;29;20453;-70
2022/05/16 13:22:24;;;;;;;12.97;12.00;;;25.70;16.40;;;;;;4936320;29;20421;-71
2022/05/16 13:24:55;;;;;;;11.20;10.70;;;25.40;16.50;;;;;;4936151;29;20449;-70
2022/05/16 13:30:19;;;;;;;12.00;11.40;;;24.40;19.60;;;;;;4945021;28;20441;-71